Terminal Aerodrome Forecast
Issued by NWS

Home | Current Version | Previous Version | Text Only | Print | Product List | Glossary On
Versions: 1 2 3 4 5 6 7 8 9 10 11 12 13 14 15 16 17 18 19 20 21 22 23 24 25 26 27 28 29 30 31 32 33 34
000
FTUS46 KLOX 110200 AAA
TAFLAX
TAF AMD
KLAX 110258Z 1103/1206 26014KT P6SM BKN014
     FM110400 26008KT P6SM OVC014
     FM110900 VRB03KT P6SM OVC019
     FM111700 25006KT P6SM SCT020
     FM112200 26014KT P6SM SCT020
     FM120300 26005KT P6SM SCT012=

USA.gov is the U.S. government's official web portal to all federal, state and local government web resources and services.